Time;durP1;ratioP1;P1;durP2;ratioP2;P2;SDS_P1;SDS_P2;PMS_P1;PMS_P2;Temp;Humidity;BMP_temperature;BMP_pressure;BME280_temperature;BME280_humidity;BME280_pressure;Samples;Min_cycle;Max_cycle;Signal;HPM_P1;HPM_P2
2024/02/01 00:00:24;;;;;;;7.50;3.87;;;9.90;2.20;;;;;;4995819;28;20188;-69
2024/02/01 00:02:50;;;;;;;7.10;4.17;;;9.80;2.00;;;;;;4994549;28;20188;-69
2024/02/01 00:05:15;;;;;;;12.33;4.80;;;9.80;2.50;;;;;;4995873;28;20536;-69
2024/02/01 00:07:41;;;;;;;3.73;3.27;;;9.80;2.90;;;;;;4995584;28;20208;-70
2024/02/01 00:10:07;;;;;;;5.40;3.50;;;9.70;3.00;;;;;;4995653;28;20274;-70
2024/02/01 00:12:33;;;;;;;8.23;5.43;;;9.70;3.30;;;;;;4995673;28;20180;-70
2024/02/01 00:14:58;;;;;;;6.60;3.80;;;9.60;3.40;;;;;;4994372;28;20527;-70
2024/02/01 00:17:24;;;;;;;6.90;3.57;;;9.60;3.80;;;;;;4995551;28;20697;-69
2024/02/01 00:19:49;;;;;;;5.33;3.73;;;9.40;4.30;;;;;;4995627;28;20254;-70
2024/02/01 00:22:15;;;;;;;8.47;4.20;;;9.30;5.30;;;;;;4995692;28;20260;-69
2024/02/01 00:24:40;;;;;;;12.43;4.70;;;9.30;5.50;;;;;;4995894;28;20267;-69
2024/02/01 00:27:06;;;;;;;6.03;3.43;;;9.30;5.50;;;;;;4993977;28;20180;-69
2024/02/01 00:29:31;;;;;;;10.03;4.10;;;9.30;5.50;;;;;;4995279;28;20645;-70
2024/02/01 00:31:57;;;;;;;7.60;4.00;;;9.30;5.50;;;;;;4995228;28;20181;-69
2024/02/01 00:34:22;;;;;;;9.70;4.00;;;9.30;5.50;;;;;;4995286;28;20295;-70
2024/02/01 00:36:49;;;;;;;5.50;4.03;;;9.40;5.20;;;;;;4995326;28;20242;-69
2024/02/01 00:39:14;;;;;;;8.00;4.87;;;9.40;5.60;;;;;;4995153;28;20219;-69
2024/02/01 00:41:40;;;;;;;6.00;3.30;;;9.40;5.10;;;;;;4995445;28;20914;-69
2024/02/01 00:44:05;;;;;;;6.60;4.00;;;9.40;4.80;;;;;;4995115;28;20185;-69
2024/02/01 00:46:31;;;;;;;6.93;4.27;;;9.40;4.80;;;;;;4994800;28;20231;-70
2024/02/01 00:48:56;;;;;;;8.17;4.43;;;9.40;4.70;;;;;;4994798;28;20209;-70
2024/02/01 00:51:22;;;;;;;9.40;3.70;;;9.40;4.50;;;;;;4994743;28;20212;-69
2024/02/01 00:53:47;;;;;;;6.97;3.13;;;9.40;4.80;;;;;;4994486;28;20184;-70
2024/02/01 00:56:13;;;;;;;6.33;3.43;;;9.40;4.60;;;;;;4994350;28;20191;-70
2024/02/01 00:58:38;;;;;;;6.77;3.67;;;9.40;4.40;;;;;;4994190;28;20739;-70
2024/02/01 01:01:04;;;;;;;5.80;3.20;;;9.40;4.00;;;;;;4994413;28;20188;-70
2024/02/01 01:03:30;;;;;;;6.50;4.20;;;9.40;3.90;;;;;;4994518;28;20191;-69
2024/02/01 01:05:55;;;;;;;5.60;4.17;;;9.40;4.10;;;;;;4994115;28;20173;-70
2024/02/01 01:08:21;;;;;;;7.60;4.43;;;9.40;3.30;;;;;;4993958;28;20176;-70
2024/02/01 01:10:46;;;;;;;5.10;3.97;;;9.50;3.60;;;;;;5013359;23;20655;-72
2024/02/01 01:13:13;;;;;;;7.60;4.10;;;9.50;3.50;;;;;;4992251;28;20656;-71
2024/02/01 01:15:38;;;;;;;9.73;3.90;;;9.40;3.50;;;;;;4993202;28;20227;-70
2024/02/01 01:18:04;;;;;;;4.90;4.03;;;9.50;3.40;;;;;;4993382;28;20475;-71
2024/02/01 01:20:29;;;;;;;6.23;3.50;;;9.50;2.90;;;;;;4993169;28;20567;-72
2024/02/01 01:22:55;;;;;;;8.13;4.30;;;9.50;2.80;;;;;;4993229;28;20685;-74
2024/02/01 01:25:21;;;;;;;6.40;3.60;;;9.40;2.70;;;;;;4992986;28;20192;-71
2024/02/01 01:27:47;;;;;;;6.33;4.87;;;9.40;3.10;;;;;;4993705;28;20203;-71
2024/02/01 01:30:13;;;;;;;9.30;3.90;;;9.40;2.60;;;;;;4993004;28;20910;-71
2024/02/01 01:32:38;;;;;;;5.47;3.97;;;9.30;2.70;;;;;;4991674;28;20428;-73
2024/02/01 01:35:04;;;;;;;4.90;3.40;;;9.20;3.60;;;;;;4993217;28;20176;-73
2024/02/01 01:37:32;;;;;;;4.50;3.63;;;9.10;3.80;;;;;;4992533;28;20287;-72
2024/02/01 01:39:58;;;;;;;5.93;3.70;;;8.90;4.50;;;;;;4992607;28;20497;-72
2024/02/01 01:42:26;;;;;;;3.87;2.57;;;8.80;5.00;;;;;;4992892;28;20416;-73
2024/02/01 01:44:51;;;;;;;9.97;3.33;;;8.80;5.20;;;;;;4992902;28;20177;-71
2024/02/01 01:47:17;;;;;;;4.77;3.27;;;8.80;5.20;;;;;;4991107;28;20486;-72
2024/02/01 01:49:43;;;;;;;3.83;2.70;;;8.80;5.20;;;;;;4991202;28;20546;-72
2024/02/01 01:52:10;;;;;;;7.10;4.00;;;8.80;5.20;;;;;;4991430;28;20324;-72
2024/02/01 01:54:37;;;;;;;9.90;4.17;;;8.70;5.10;;;;;;4992752;28;20186;-72
2024/02/01 01:57:05;;;;;;;4.00;3.20;;;8.80;5.20;;;;;;4992659;28;20824;-71
2024/02/01 01:59:30;;;;;;;5.77;2.90;;;8.80;5.20;;;;;;4991885;28;20526;-71
2024/02/01 02:01:59;;;;;;;6.30;3.17;;;9.00;4.70;;;;;;4991162;28;20448;-72
2024/02/01 02:04:24;;;;;;;5.83;3.13;;;9.00;4.60;;;;;;4992725;28;20754;-71
2024/02/01 02:06:55;;;;;;;4.47;3.13;;;9.00;4.50;;;;;;4990969;28;20423;-72
2024/02/01 02:09:21;;;;;;;3.13;2.70;;;9.10;4.00;;;;;;4991408;28;20316;-71
2024/02/01 02:11:47;;;;;;;7.40;3.60;;;9.10;3.80;;;;;;4992329;28;20428;-72
2024/02/01 02:14:15;;;;;;;3.60;2.13;;;9.20;3.70;;;;;;4992209;28;20910;-71
2024/02/01 02:16:40;;;;;;;5.30;3.07;;;9.20;3.30;;;;;;4992215;28;20184;-72
2024/02/01 02:19:09;;;;;;;3.20;2.70;;;9.30;3.20;;;;;;4992165;28;20474;-73
2024/02/01 02:21:43;;;;;;;5.20;3.90;;;9.30;3.50;;;;;;4992407;28;20263;-74
2024/02/01 02:24:09;;;;;;;7.60;3.43;;;9.30;3.00;;;;;;4992125;28;20970;-73
2024/02/01 02:26:35;;;;;;;5.57;2.87;;;9.30;3.10;;;;;;4990572;28;20505;-72
2024/02/01 02:29:03;;;;;;;7.50;3.83;;;9.30;3.10;;;;;;4990244;28;20432;-72
2024/02/01 02:31:28;;;;;;;8.03;2.77;;;9.30;2.80;;;;;;4991828;28;20172;-73
2024/02/01 02:33:54;;;;;;;4.67;2.90;;;9.30;2.70;;;;;;4991723;28;20932;-73
2024/02/01 02:36:19;;;;;;;5.00;2.53;;;9.30;2.80;;;;;;4990303;28;20184;-71
2024/02/01 02:38:45;;;;;;;4.70;3.10;;;9.30;2.80;;;;;;4990247;28;20216;-71
2024/02/01 02:41:10;;;;;;;7.83;3.03;;;9.30;3.30;;;;;;4991788;28;20188;-72
2024/02/01 02:43:36;;;;;;;6.10;2.77;;;9.30;2.70;;;;;;4991896;28;20215;-71
2024/02/01 02:46:01;;;;;;;11.40;3.10;;;9.30;2.60;;;;;;4991574;28;20454;-72
2024/02/01 02:48:27;;;;;;;3.40;2.60;;;9.20;3.10;;;;;;4990242;28;20230;-71
2024/02/01 02:50:52;;;;;;;4.37;3.00;;;9.20;3.40;;;;;;4991526;28;20246;-71
2024/02/01 02:53:18;;;;;;;7.33;2.90;;;9.20;3.30;;;;;;4991489;28;20192;-71
2024/02/01 02:55:43;;;;;;;5.87;4.00;;;9.20;3.50;;;;;;4989796;28;20184;-72
2024/02/01 02:58:09;;;;;;;8.43;3.00;;;9.20;3.80;;;;;;4991303;28;20564;-71
2024/02/01 03:00:34;;;;;;;6.23;3.53;;;9.20;3.80;;;;;;4991138;28;20213;-72
2024/02/01 03:03:00;;;;;;;7.57;3.33;;;9.20;4.10;;;;;;4990251;28;20188;-71
2024/02/01 03:05:26;;;;;;;7.33;3.77;;;9.20;4.20;;;;;;4990953;28;20185;-71
2024/02/01 03:07:53;;;;;;;7.20;3.20;;;9.30;3.90;;;;;;4991277;28;20188;-70
2024/02/01 03:10:19;;;;;;;5.13;3.10;;;9.30;3.60;;;;;;4990931;28;20455;-70
2024/02/01 03:12:45;;;;;;;4.00;3.30;;;9.40;3.20;;;;;;4991144;28;20428;-73
2024/02/01 03:15:11;;;;;;;9.27;4.57;;;9.40;2.90;;;;;;4991222;28;20935;-74
2024/02/01 03:17:40;;;;;;;7.80;3.80;;;9.40;2.70;;;;;;4989602;28;20201;-72
2024/02/01 03:20:22;;;;;;;5.90;4.23;;;9.40;2.90;;;;;;4990953;28;20193;-72
2024/02/01 03:22:48;;;;;;;11.03;3.60;;;9.50;3.00;;;;;;4989650;28;20921;-72
2024/02/01 03:25:13;;;;;;;4.63;3.70;;;9.50;2.00;;;;;;4990967;28;20427;-71
2024/02/01 03:27:42;;;;;;;5.10;3.27;;;9.50;2.50;;;;;;4989480;28;20507;-72
2024/02/01 03:30:11;;;;;;;5.57;4.10;;;9.50;2.40;;;;;;4989010;28;20216;-72
2024/02/01 03:32:40;;;;;;;3.87;3.00;;;9.40;3.00;;;;;;4990927;28;20415;-71
2024/02/01 03:35:07;;;;;;;4.07;3.67;;;9.40;2.90;;;;;;4990944;28;20416;-72
2024/02/01 03:37:33;;;;;;;7.80;5.10;;;9.40;3.30;;;;;;4990584;28;20439;-73
2024/02/01 03:39:59;;;;;;;6.17;3.10;;;9.40;2.80;;;;;;4990629;28;20466;-71
2024/02/01 03:42:25;;;;;;;4.60;3.30;;;9.30;3.30;;;;;;4989518;28;20435;-72
2024/02/01 03:44:50;;;;;;;5.23;2.90;;;9.20;3.90;;;;;;4991069;28;20238;-71
2024/02/01 03:47:17;;;;;;;4.77;3.40;;;9.20;3.40;;;;;;4989295;28;20251;-71
2024/02/01 03:49:43;;;;;;;4.03;3.03;;;9.00;4.70;;;;;;4990608;28;20223;-72
2024/02/01 03:52:09;;;;;;;6.10;4.40;;;8.90;4.60;;;;;;4989616;28;20855;-71
2024/02/01 03:54:38;;;;;;;6.30;3.67;;;8.90;4.70;;;;;;4989376;28;20199;-71
2024/02/01 03:57:05;;;;;;;7.80;3.60;;;8.80;5.00;;;;;;4990550;28;20470;-72
2024/02/01 03:59:31;;;;;;;5.80;3.53;;;8.80;5.20;;;;;;4990503;28;21047;-70
2024/02/01 04:02:03;;;;;;;6.60;3.67;;;8.80;5.20;;;;;;4990667;28;20775;-71
2024/02/01 04:04:32;;;;;;;4.80;3.10;;;8.70;5.10;;;;;;4990826;28;20414;-72
2024/02/01 04:06:57;;;;;;;5.13;3.27;;;8.70;5.10;;;;;;4989115;28;20821;-73
2024/02/01 04:09:24;;;;;;;6.70;3.50;;;8.70;4.60;;;;;;4989137;28;20470;-73
2024/02/01 04:11:50;;;;;;;10.60;3.40;;;8.70;4.70;;;;;;4989269;28;20184;-72
2024/02/01 04:14:15;;;;;;;6.13;3.73;;;8.70;4.70;;;;;;4989307;28;20423;-71
2024/02/01 04:16:41;;;;;;;5.33;3.40;;;8.70;4.30;;;;;;4989074;28;20383;-72
2024/02/01 04:19:06;;;;;;;4.73;3.97;;;8.70;3.70;;;;;;4990533;28;20250;-72
2024/02/01 04:21:32;;;;;;;6.07;4.77;;;8.70;4.50;;;;;;4990464;28;20200;-72
2024/02/01 04:23:57;;;;;;;5.67;4.10;;;8.70;4.20;;;;;;4990673;28;20264;-72
2024/02/01 04:26:23;;;;;;;6.30;4.47;;;8.70;4.30;;;;;;4990524;28;20192;-72
2024/02/01 04:28:51;;;;;;;9.83;5.10;;;8.70;4.10;;;;;;4990899;28;20188;-73
2024/02/01 04:31:17;;;;;;;6.63;3.80;;;8.60;3.90;;;;;;4990640;28;20216;-72
2024/02/01 04:33:43;;;;;;;5.30;3.80;;;8.60;3.60;;;;;;4993617;28;20424;-71
2024/02/01 04:36:08;;;;;;;6.33;4.40;;;8.60;4.00;;;;;;4993876;28;20184;-72
2024/02/01 04:38:36;;;;;;;5.67;3.87;;;8.60;3.80;;;;;;4994036;28;20260;-72
2024/02/01 04:41:05;;;;;;;5.23;3.50;;;8.70;2.90;;;;;;4994086;28;20180;-72
2024/02/01 04:43:31;;;;;;;5.60;3.00;;;8.80;2.70;;;;;;4993986;28;20411;-72
2024/02/01 04:45:56;;;;;;;5.87;3.13;;;8.80;1.70;;;;;;4993899;28;20505;-73
2024/02/01 04:48:22;;;;;;;4.30;2.30;;;8.90;1.00;;;;;;4993665;28;20188;-71
2024/02/01 04:50:49;;;;;;;6.03;2.63;;;8.90;1.00;;;;;;4992314;28;20761;-71
2024/02/01 04:53:15;;;;;;;7.73;3.60;;;8.90;1.00;;;;;;4993818;28;20611;-72
2024/02/01 04:55:40;;;;;;;4.13;3.00;;;8.90;1.00;;;;;;4993486;28;20426;-73
2024/02/01 04:58:06;;;;;;;5.67;2.90;;;9.00;1.00;;;;;;4992199;28;20214;-72
2024/02/01 05:00:33;;;;;;;4.20;2.80;;;9.00;1.00;;;;;;4993490;28;20690;-71
2024/02/01 05:02:58;;;;;;;4.23;2.70;;;9.10;1.00;;;;;;4992804;28;20424;-72
2024/02/01 05:05:25;;;;;;;7.00;3.50;;;9.10;1.00;;;;;;4993621;28;20752;-73
2024/02/01 05:07:51;;;;;;;4.37;2.87;;;9.10;1.00;;;;;;4992228;28;20185;-73
2024/02/01 05:10:17;;;;;;;4.00;2.13;;;9.10;1.00;;;;;;4993368;28;20884;-72
2024/02/01 05:12:43;;;;;;;7.20;3.00;;;9.20;1.00;;;;;;4992119;28;20423;-73
2024/02/01 05:15:11;;;;;;;4.93;2.87;;;9.20;1.00;;;;;;4994977;28;20199;-72
2024/02/01 05:17:37;;;;;;;7.60;3.93;;;9.20;1.00;;;;;;4994177;28;20874;-71
2024/02/01 05:20:08;;;;;;;4.53;3.03;;;9.20;1.00;;;;;;4991417;28;20435;-73
2024/02/01 05:22:40;;;;;;;5.50;3.30;;;9.20;1.00;;;;;;4991620;28;20426;-72
2024/02/01 05:25:14;;;;;;;5.73;2.93;;;9.20;1.00;;;;;;4991537;28;20423;-71
2024/02/01 05:27:50;;;;;;;5.50;3.10;;;9.20;1.00;;;;;;4992758;28;20523;-72
2024/02/01 05:30:18;;;;;;;5.07;2.70;;;9.20;1.00;;;;;;4992526;28;20528;-71
2024/02/01 05:32:52;;;;;;;4.17;2.37;;;9.20;1.00;;;;;;4991200;28;20882;-73
2024/02/01 05:35:33;;;;;;;3.90;3.30;;;9.30;1.00;;;;;;4991306;28;20419;-71
2024/02/01 05:38:00;;;;;;;3.90;2.90;;;9.30;1.00;;;;;;4992465;28;20951;-71
2024/02/01 05:40:27;;;;;;;5.60;3.30;;;9.40;1.00;;;;;;4992364;28;20935;-71
2024/02/01 05:42:52;;;;;;;3.43;2.63;;;9.30;1.00;;;;;;4991128;28;20414;-72
2024/02/01 05:45:18;;;;;;;4.63;2.50;;;9.20;1.00;;;;;;4991965;28;20424;-72
2024/02/01 05:47:44;;;;;;;3.97;2.77;;;9.20;1.00;;;;;;4992516;28;20616;-72
2024/02/01 05:50:14;;;;;;;3.63;3.10;;;9.30;1.00;;;;;;4990854;28;20520;-71
2024/02/01 05:52:40;;;;;;;4.00;2.80;;;9.20;1.00;;;;;;4991073;28;20524;-71
2024/02/01 05:55:07;;;;;;;7.47;2.90;;;9.20;1.00;;;;;;4992491;28;20455;-72
2024/02/01 05:57:33;;;;;;;4.63;3.10;;;9.20;1.00;;;;;;4990840;28;20427;-72
2024/02/01 06:00:00;;;;;;;4.77;3.37;;;9.20;1.00;;;;;;4992152;28;20436;-71
2024/02/01 06:02:27;;;;;;;5.13;3.57;;;9.20;1.00;;;;;;4991014;28;20424;-73
2024/02/01 06:04:52;;;;;;;4.40;3.03;;;9.20;1.00;;;;;;4992144;28;20875;-72
2024/02/01 06:07:18;;;;;;;6.37;4.40;;;9.10;1.70;;;;;;4990275;28;20419;-71
2024/02/01 06:09:44;;;;;;;5.97;3.70;;;9.10;2.30;;;;;;4990618;28;20959;-72
2024/02/01 06:12:09;;;;;;;4.93;3.03;;;9.10;1.80;;;;;;4991992;28;20268;-71
2024/02/01 06:14:35;;;;;;;4.20;3.80;;;9.20;1.90;;;;;;4990662;28;20608;-71
2024/02/01 06:17:02;;;;;;;9.47;4.17;;;9.10;3.10;;;;;;4990255;28;20254;-72
2024/02/01 06:19:28;;;;;;;5.30;4.17;;;9.10;3.60;;;;;;4990302;28;20247;-71
2024/02/01 06:21:53;;;;;;;5.23;3.97;;;9.10;3.40;;;;;;4990061;28;20939;-72
2024/02/01 06:24:19;;;;;;;13.20;5.13;;;9.10;3.10;;;;;;4991862;28;20440;-71
2024/02/01 06:26:45;;;;;;;7.50;5.00;;;9.20;3.30;;;;;;4990226;28;20187;-71
2024/02/01 06:29:10;;;;;;;7.07;4.07;;;9.20;2.80;;;;;;4990395;28;20200;-71
2024/02/01 06:31:39;;;;;;;7.40;4.93;;;9.10;2.20;;;;;;4990150;28;20180;-72
2024/02/01 06:34:09;;;;;;;6.47;5.00;;;9.10;2.30;;;;;;4990257;28;20181;-71
2024/02/01 06:36:36;;;;;;;9.40;5.00;;;9.10;3.10;;;;;;4991345;28;20415;-72
2024/02/01 06:39:36;;;;;;;6.23;3.80;;;9.00;2.70;;;;;;4989922;28;20498;-73
2024/02/01 06:42:13;;;;;;;6.23;4.00;;;9.10;2.40;;;;;;4991303;28;20450;-71
2024/02/01 06:44:48;;;;;;;5.80;3.47;;;9.10;2.80;;;;;;4991299;28;20414;-71
2024/02/01 06:47:23;;;;;;;6.03;4.77;;;9.10;2.40;;;;;;4991458;28;20418;-72
2024/02/01 06:50:03;;;;;;;4.80;3.33;;;9.10;2.60;;;;;;4991202;28;20987;-71
2024/02/01 06:52:35;;;;;;;6.60;4.30;;;9.00;2.90;;;;;;4989946;28;20436;-71
2024/02/01 06:58:27;;;;;;;6.20;4.40;;;9.00;3.60;;;;;;4991184;28;20509;-72
2024/02/01 07:00:40;;;;;;;6.90;4.60;;;9.00;4.20;;;;;;4977265;28;20440;-71
2024/02/01 07:03:43;;;;;;;9.53;5.03;;;8.90;4.10;;;;;;4991544;28;20449;-70
2024/02/01 07:06:18;;;;;;;8.37;4.97;;;8.90;5.80;;;;;;4990820;28;20478;-71
2024/02/01 07:19:10;;;;;;;6.60;4.80;;;9.00;7.00;;;;;;4991624;28;20514;-71
2024/02/01 07:21:59;;;;;;;10.20;4.90;;;8.90;8.30;;;;;;4991645;28;20475;-69
2024/02/01 07:59:59;;;;;;;8.33;5.53;;;8.60;18.20;;;;;;4991272;28;20440;-69
2024/02/01 08:02:49;;;;;;;9.70;6.30;;;8.50;19.60;;;;;;4991374;28;20817;-68
2024/02/01 08:07:56;;;;;;;8.90;5.40;;;8.40;20.90;;;;;;4994160;28;20770;-69
2024/02/01 08:10:22;;;;;;;9.40;6.30;;;8.30;22.20;;;;;;4994832;28;20458;-69
2024/02/01 08:12:48;;;;;;;5.97;4.63;;;8.20;22.80;;;;;;4994987;28;20258;-68
2024/02/01 08:15:20;;;;;;;7.83;5.67;;;8.20;22.80;;;;;;4995176;28;20534;-68
2024/02/01 08:17:48;;;;;;;9.87;5.87;;;8.30;23.90;;;;;;4995212;28;20479;-68
2024/02/01 08:20:14;;;;;;;8.77;5.40;;;8.30;24.50;;;;;;4994788;28;20449;-68
2024/02/01 08:22:41;;;;;;;9.23;6.40;;;8.40;23.60;;;;;;4994891;28;20416;-69
2024/02/01 08:25:07;;;;;;;10.53;6.80;;;8.50;22.80;;;;;;4995028;28;20496;-68
2024/02/01 08:27:34;;;;;;;12.20;5.70;;;8.50;24.20;;;;;;4994692;28;20411;-69
2024/02/01 08:30:12;;;;;;;8.70;5.90;;;8.60;23.30;;;;;;4994568;28;20438;-69
2024/02/01 08:32:43;;;;;;;11.50;6.60;;;8.60;22.50;;;;;;4993743;28;20731;-69
2024/02/01 08:35:10;;;;;;;8.73;6.80;;;8.60;22.40;;;;;;4994747;28;20445;-69
2024/02/01 08:37:39;;;;;;;8.23;5.73;;;8.50;23.50;;;;;;4994412;28;20436;-69
2024/02/01 08:40:16;;;;;;;7.80;4.97;;;8.50;23.00;;;;;;4994826;28;20907;-69
2024/02/01 08:42:43;;;;;;;7.53;6.20;;;8.60;22.50;;;;;;4993836;28;20450;-69
2024/02/01 08:45:10;;;;;;;6.93;6.20;;;8.60;22.40;;;;;;4995009;28;20419;-69
2024/02/01 08:47:36;;;;;;;6.67;4.90;;;8.70;22.50;;;;;;4994682;28;20473;-69
2024/02/01 08:50:06;;;;;;;10.97;6.30;;;8.70;22.50;;;;;;4994643;28;20446;-70
2024/02/01 08:52:35;;;;;;;8.53;6.30;;;8.60;22.50;;;;;;4994459;28;20744;-69
2024/02/01 08:55:00;;;;;;;9.30;5.90;;;8.70;23.00;;;;;;4994424;28;20420;-69
2024/02/01 08:57:26;;;;;;;5.87;4.93;;;8.70;23.00;;;;;;4994077;28;20489;-69
2024/02/01 08:59:52;;;;;;;7.23;5.27;;;8.60;22.90;;;;;;4994258;28;20227;-70
2024/02/01 09:02:18;;;;;;;7.50;5.60;;;8.60;22.70;;;;;;4994173;28;20645;-69
2024/02/01 09:04:46;;;;;;;8.90;7.43;;;8.60;24.00;;;;;;4994283;28;20551;-68
2024/02/01 09:07:12;;;;;;;7.27;6.00;;;8.60;23.80;;;;;;4993927;28;20448;-70
2024/02/01 09:09:39;;;;;;;8.13;5.87;;;8.60;25.30;;;;;;4993818;28;20462;-69
2024/02/01 09:12:05;;;;;;;8.37;6.00;;;8.60;24.80;;;;;;4994199;28;20431;-69
2024/02/01 09:14:34;;;;;;;14.90;5.47;;;8.50;25.80;;;;;;4994135;28;20419;-69
2024/02/01 09:16:59;;;;;;;8.17;6.53;;;8.50;26.10;;;;;;4993751;28;20177;-69
2024/02/01 09:19:25;;;;;;;7.33;5.60;;;8.50;27.10;;;;;;4993751;28;20520;-69
2024/02/01 09:21:51;;;;;;;6.00;4.90;;;8.60;26.90;;;;;;4993556;28;20491;-68
2024/02/01 09:24:17;;;;;;;11.80;5.33;;;8.70;25.70;;;;;;4993524;28;20922;-69
2024/02/01 09:26:43;;;;;;;11.53;5.10;;;8.70;25.70;;;;;;4993349;28;20176;-69
2024/02/01 09:29:12;;;;;;;6.37;4.83;;;8.80;24.90;;;;;;4993622;28;20438;-68
2024/02/01 09:31:39;;;;;;;11.67;5.80;;;8.80;24.20;;;;;;4992656;28;20506;-69
2024/02/01 09:34:05;;;;;;;7.67;5.67;;;8.90;24.20;;;;;;4993838;28;20422;-69
2024/02/01 09:36:31;;;;;;;5.07;4.30;;;8.90;23.40;;;;;;4993455;28;20424;-69
2024/02/01 09:38:56;;;;;;;6.97;6.00;;;8.80;22.80;;;;;;4993295;28;20291;-69
2024/02/01 09:41:22;;;;;;;6.17;5.27;;;8.90;23.50;;;;;;4993679;28;20482;-69
2024/02/01 09:43:49;;;;;;;7.60;5.47;;;8.80;21.80;;;;;;4993376;28;20200;-69
2024/02/01 09:46:17;;;;;;;8.20;5.17;;;8.80;22.60;;;;;;4991944;28;20248;-69
2024/02/01 09:48:44;;;;;;;7.17;4.60;;;8.70;23.20;;;;;;4992285;28;20428;-69
2024/02/01 09:51:17;;;;;;;6.27;3.93;;;8.70;24.80;;;;;;4991978;28;20454;-69
2024/02/01 09:53:45;;;;;;;7.30;4.00;;;8.80;23.50;;;;;;4993373;28;20431;-69
2024/02/01 09:56:12;;;;;;;6.87;4.80;;;8.90;22.60;;;;;;4992791;28;20890;-69
2024/02/01 09:58:40;;;;;;;4.63;3.43;;;9.10;22.80;;;;;;4993464;28;20483;-68
2024/02/01 10:01:06;;;;;;;6.80;3.83;;;9.10;22.80;;;;;;4993120;28;20493;-69
2024/02/01 10:03:32;;;;;;;5.07;4.13;;;9.20;20.30;;;;;;4992985;28;20448;-68
2024/02/01 10:06:04;;;;;;;5.40;3.87;;;9.10;20.40;;;;;;4992806;28;20177;-70
2024/02/01 10:08:33;;;;;;;8.40;3.83;;;9.20;21.10;;;;;;4991671;28;20199;-69
2024/02/01 10:11:01;;;;;;;4.87;3.70;;;9.10;19.10;;;;;;4992632;28;20835;-69
2024/02/01 10:13:32;;;;;;;4.60;3.23;;;8.90;20.70;;;;;;4992811;28;20420;-69
2024/02/01 10:15:59;;;;;;;4.07;2.90;;;9.00;22.30;;;;;;4991367;28;20435;-69
2024/02/01 10:18:25;;;;;;;5.93;3.63;;;8.90;21.80;;;;;;4992702;28;20546;-68
2024/02/01 10:20:53;;;;;;;7.43;4.33;;;9.00;22.80;;;;;;4992501;28;20561;-68
2024/02/01 10:23:19;;;;;;;7.40;4.07;;;9.00;22.30;;;;;;4993164;28;20196;-69
2024/02/01 10:25:55;;;;;;;5.97;3.10;;;9.20;22.30;;;;;;4992419;28;20420;-68
2024/02/01 10:28:22;;;;;;;4.33;2.90;;;9.20;21.10;;;;;;4992414;28;20418;-68
2024/02/01 10:30:49;;;;;;;3.97;2.60;;;9.30;20.70;;;;;;4991778;28;20751;-68
2024/02/01 10:33:25;;;;;;;5.30;3.47;;;9.20;19.40;;;;;;4991208;28;20471;-69
2024/02/01 10:35:52;;;;;;;3.60;2.70;;;9.40;20.70;;;;;;4992136;28;20458;-69
2024/02/01 10:38:23;;;;;;;5.13;2.97;;;9.40;19.10;;;;;;4992262;28;21052;-70
2024/02/01 10:40:58;;;;;;;4.90;3.60;;;9.40;19.50;;;;;;4992076;28;20443;-69
2024/02/01 10:43:29;;;;;;;8.63;5.37;;;9.50;19.30;;;;;;4992017;28;20415;-70
2024/02/01 10:46:05;;;;;;;7.83;4.90;;;9.50;18.90;;;;;;4992675;28;20415;-68
2024/02/01 10:48:46;;;;;;;6.10;3.73;;;9.50;18.80;;;;;;4997773;28;20988;-68
2024/02/01 10:51:13;;;;;;;5.00;2.90;;;9.50;18.80;;;;;;4996442;28;20436;-68
2024/02/01 10:53:41;;;;;;;4.90;3.40;;;9.70;18.90;;;;;;4991909;28;20446;-68
2024/02/01 10:56:14;;;;;;;4.10;2.47;;;9.90;17.00;;;;;;4992034;28;20926;-69
2024/02/01 10:59:07;;;;;;;7.57;4.40;;;10.00;15.00;;;;;;4992285;28;20845;-69
2024/02/01 11:01:33;;;;;;;6.20;3.80;;;10.00;14.60;;;;;;4991815;28;20419;-69
2024/02/01 11:04:01;;;;;;;4.90;3.23;;;10.10;14.60;;;;;;4990324;28;20442;-68
2024/02/01 11:06:28;;;;;;;5.30;3.13;;;10.30;13.50;;;;;;4991609;28;20962;-69
2024/02/01 11:09:01;;;;;;;4.13;2.73;;;10.20;12.90;;;;;;4991749;28;20450;-70
2024/02/01 11:11:32;;;;;;;4.73;3.07;;;10.20;13.70;;;;;;4990274;28;20442;-69
2024/02/01 11:14:09;;;;;;;6.73;4.10;;;10.30;13.00;;;;;;4991801;28;20469;-69
2024/02/01 11:16:40;;;;;;;4.67;3.13;;;10.40;13.50;;;;;;4991529;28;20451;-69
2024/02/01 11:19:17;;;;;;;5.20;2.90;;;10.60;11.00;;;;;;4990452;28;20467;-68
2024/02/01 11:21:54;;;;;;;3.70;2.20;;;10.50;10.30;;;;;;4991598;28;20498;-69
2024/02/01 11:24:34;;;;;;;5.60;2.87;;;10.50;10.60;;;;;;4991899;28;20418;-69
2024/02/01 11:27:10;;;;;;;5.50;2.53;;;10.50;11.40;;;;;;4990138;28;20519;-70
2024/02/01 11:29:37;;;;;;;3.90;2.23;;;10.10;12.50;;;;;;4991686;28;20443;-69
2024/02/01 11:32:05;;;;;;;6.70;3.30;;;10.10;13.10;;;;;;4991489;28;20428;-69
2024/02/01 11:34:33;;;;;;;4.40;2.70;;;10.20;14.70;;;;;;4991658;28;20763;-69
2024/02/01 11:36:59;;;;;;;4.77;2.57;;;10.00;14.10;;;;;;4991430;28;20572;-69
2024/02/01 11:39:28;;;;;;;5.07;3.13;;;10.00;14.10;;;;;;4991296;28;20478;-69
2024/02/01 11:41:55;;;;;;;4.07;2.23;;;10.10;14.10;;;;;;4992046;28;20458;-68
2024/02/01 11:44:23;;;;;;;3.63;2.40;;;10.10;14.10;;;;;;4995862;28;20420;-69
2024/02/01 11:46:50;;;;;;;3.87;2.43;;;10.20;14.90;;;;;;4993462;28;20436;-68
2024/02/01 11:49:18;;;;;;;8.40;2.57;;;10.30;15.50;;;;;;4995311;28;20424;-69
2024/02/01 11:51:45;;;;;;;2.73;2.10;;;10.50;15.40;;;;;;4995395;28;20538;-69
2024/02/01 11:54:11;;;;;;;5.67;2.90;;;10.50;12.30;;;;;;4995317;28;20423;-69
2024/02/01 11:56:37;;;;;;;4.00;1.90;;;10.80;12.50;;;;;;4995002;28;20420;-69
2024/02/01 11:59:04;;;;;;;4.27;2.90;;;10.90;11.10;;;;;;4994909;28;20489;-68
2024/02/01 12:01:30;;;;;;;4.20;2.63;;;11.10;10.40;;;;;;4993454;28;20439;-68
2024/02/01 12:03:57;;;;;;;3.23;2.40;;;11.20;10.10;;;;;;4994974;28;20422;-68
2024/02/01 12:06:24;;;;;;;5.10;3.37;;;11.60;7.90;;;;;;4994738;28;20434;-69
2024/02/01 12:08:50;;;;;;;3.73;2.60;;;11.80;6.40;;;;;;4993527;28;20564;-68
2024/02/01 12:11:19;;;;;;;5.97;3.53;;;11.50;5.80;;;;;;4994771;28;20550;-69
2024/02/01 12:13:47;;;;;;;4.03;2.93;;;11.40;6.70;;;;;;4994782;28;20501;-69
2024/02/01 12:16:25;;;;;;;4.40;2.60;;;11.30;6.90;;;;;;4993215;28;20814;-69
2024/02/01 12:18:53;;;;;;;3.87;2.40;;;11.00;7.70;;;;;;4993194;28;20470;-69
2024/02/01 12:21:26;;;;;;;3.67;2.10;;;10.80;9.00;;;;;;4994606;28;20440;-68
2024/02/01 12:23:59;;;;;;;3.43;1.83;;;11.00;8.70;;;;;;4994779;28;20456;-70
2024/02/01 12:26:29;;;;;;;4.37;2.00;;;11.00;8.60;;;;;;4993267;28;20427;-68
2024/02/01 12:28:55;;;;;;;7.10;1.57;;;10.90;8.70;;;;;;4995579;28;20443;-69
2024/02/01 12:31:22;;;;;;;3.20;1.93;;;10.80;10.40;;;;;;4994713;28;20502;-70
2024/02/01 12:33:49;;;;;;;3.60;1.90;;;10.60;10.70;;;;;;4994783;28;20462;-70
2024/02/01 12:36:15;;;;;;;3.27;1.83;;;10.50;11.60;;;;;;4993248;28;20431;-70
2024/02/01 12:38:41;;;;;;;4.83;2.50;;;10.50;13.50;;;;;;4994572;28;20495;-70
2024/02/01 12:41:10;;;;;;;2.80;1.73;;;10.80;12.00;;;;;;4994279;28;20470;-69
2024/02/01 12:43:36;;;;;;;3.50;2.20;;;11.00;10.40;;;;;;4993326;28;20551;-69
2024/02/01 12:46:02;;;;;;;3.30;2.33;;;11.10;9.00;;;;;;4994190;28;20426;-69
2024/02/01 12:48:28;;;;;;;3.60;2.10;;;11.10;9.40;;;;;;4994821;28;20415;-70
2024/02/01 12:50:54;;;;;;;3.60;2.20;;;11.00;10.40;;;;;;4992858;28;20550;-71
2024/02/01 12:53:20;;;;;;;3.20;2.07;;;11.30;9.40;;;;;;4994010;28;20183;-69
2024/02/01 12:55:45;;;;;;;2.97;1.40;;;11.60;8.10;;;;;;4994069;28;20513;-70
2024/02/01 12:58:16;;;;;;;3.53;2.10;;;11.60;6.30;;;;;;4994232;28;20208;-69
2024/02/01 13:00:41;;;;;;;3.30;2.03;;;11.60;6.30;;;;;;4994554;28;20218;-70
2024/02/01 13:03:07;;;;;;;4.87;2.00;;;11.60;5.10;;;;;;4994486;28;20753;-70
2024/02/01 13:05:33;;;;;;;3.10;2.07;;;11.70;5.10;;;;;;4993987;28;20468;-70
2024/02/01 13:07:59;;;;;;;3.13;2.17;;;11.50;6.20;;;;;;4994421;28;20664;-70
2024/02/01 13:10:25;;;;;;;5.67;2.93;;;11.70;6.40;;;;;;4994127;28;20305;-69
2024/02/01 13:12:58;;;;;;;2.73;1.90;;;11.50;6.30;;;;;;4992828;28;20515;-68
2024/02/01 13:15:26;;;;;;;4.07;2.07;;;11.10;8.30;;;;;;4992815;28;20809;-70
2024/02/01 13:17:52;;;;;;;3.63;1.93;;;11.10;8.80;;;;;;4994009;28;20804;-71
2024/02/01 13:20:19;;;;;;;6.27;2.43;;;11.10;8.80;;;;;;4994129;28;20447;-69
2024/02/01 13:22:49;;;;;;;4.53;1.67;;;10.80;10.20;;;;;;4993899;28;20363;-70
2024/02/01 13:25:19;;;;;;;4.60;2.30;;;10.70;11.30;;;;;;4994300;28;20412;-70
2024/02/01 13:27:49;;;;;;;2.47;1.53;;;10.60;12.50;;;;;;4993751;28;20474;-70
2024/02/01 13:30:16;;;;;;;3.57;1.77;;;10.40;13.30;;;;;;4993897;28;20574;-70
2024/02/01 13:32:43;;;;;;;2.13;1.40;;;10.40;14.40;;;;;;4993833;28;20444;-70
2024/02/01 13:35:13;;;;;;;2.70;1.50;;;10.30;14.30;;;;;;4993442;28;20772;-70
2024/02/01 13:37:39;;;;;;;3.30;1.33;;;10.20;15.00;;;;;;4993377;28;20447;-70
2024/02/01 13:40:05;;;;;;;3.20;1.77;;;10.30;15.00;;;;;;4993707;28;20436;-68
2024/02/01 13:42:34;;;;;;;2.47;1.60;;;10.30;15.90;;;;;;4993433;28;20423;-69
2024/02/01 13:45:02;;;;;;;3.00;1.77;;;10.30;15.50;;;;;;4993856;28;20420;-70
2024/02/01 13:47:27;;;;;;;4.77;2.40;;;10.20;15.30;;;;;;4993228;28;20545;-69
2024/02/01 13:49:53;;;;;;;4.97;3.07;;;10.20;15.40;;;;;;4993029;28;20478;-70
2024/02/01 13:52:19;;;;;;;4.37;2.50;;;10.20;15.60;;;;;;4991909;28;20177;-70
2024/02/01 13:54:44;;;;;;;2.97;1.50;;;10.20;16.00;;;;;;4993256;28;20177;-69